sensor_id;sensor_type;location;lat;lon;timestamp;temperature;humidity
60027;DHT22;45891;53.006;6.512;2023-04-24T00:00:31;10.40;99.90
60027;DHT22;45891;53.006;6.512;2023-04-24T00:02:57;10.40;99.90
60027;DHT22;45891;53.006;6.512;2023-04-24T00:05:25;10.40;99.90
60027;DHT22;45891;53.006;6.512;2023-04-24T00:07:51;10.40;99.90
60027;DHT22;45891;53.006;6.512;2023-04-24T00:10:21;10.40;99.90
60027;DHT22;45891;53.006;6.512;2023-04-24T00:12:47;10.40;99.90
60027;DHT22;45891;53.006;6.512;2023-04-24T00:15:13;10.30;99.90
60027;DHT22;45891;53.006;6.512;2023-04-24T00:17:39;10.30;99.90
60027;DHT22;45891;53.006;6.512;2023-04-24T00:20:06;10.20;99.90
60027;DHT22;45891;53.006;6.512;2023-04-24T00:22:32;10.20;99.90
60027;DHT22;45891;53.006;6.512;2023-04-24T00:24:59;10.20;99.90
60027;DHT22;45891;53.006;6.512;2023-04-24T00:27:25;10.10;99.90
60027;DHT22;45891;53.006;6.512;2023-04-24T00:29:51;10.20;99.90
60027;DHT22;45891;53.006;6.512;2023-04-24T00:32:17;10.20;99.90
60027;DHT22;45891;53.006;6.512;2023-04-24T00:34:43;10.20;99.90
60027;DHT22;45891;53.006;6.512;2023-04-24T00:37:09;10.20;99.90
60027;DHT22;45891;53.006;6.512;2023-04-24T00:39:35;10.20;99.90
60027;DHT22;45891;53.006;6.512;2023-04-24T00:42:01;10.20;99.90
60027;DHT22;45891;53.006;6.512;2023-04-24T00:44:28;10.10;99.90
60027;DHT22;45891;53.006;6.512;2023-04-24T00:46:55;10.10;99.90
60027;DHT22;45891;53.006;6.512;2023-04-24T00:49:22;10.10;99.90
60027;DHT22;45891;53.006;6.512;2023-04-24T00:51:48;10.10;99.90
60027;DHT22;45891;53.006;6.512;2023-04-24T00:54:15;10.10;99.90
60027;DHT22;45891;53.006;6.512;2023-04-24T00:56:42;10.10;99.90
60027;DHT22;45891;53.006;6.512;2023-04-24T00:59:09;10.10;99.90
60027;DHT22;45891;53.006;6.512;2023-04-24T01:01:36;10.00;99.90
60027;DHT22;45891;53.006;6.512;2023-04-24T01:04:02;10.10;99.90
60027;DHT22;45891;53.006;6.512;2023-04-24T01:06:29;10.00;99.90
60027;DHT22;45891;53.006;6.512;2023-04-24T01:08:58;10.00;99.90
60027;DHT22;45891;53.006;6.512;2023-04-24T01:11:25;10.00;99.90
60027;DHT22;45891;53.006;6.512;2023-04-24T01:13:51;10.00;99.90
60027;DHT22;45891;53.006;6.512;2023-04-24T01:16:18;10.00;99.90
60027;DHT22;45891;53.006;6.512;2023-04-24T01:18:47;10.00;99.90
60027;DHT22;45891;53.006;6.512;2023-04-24T01:21:15;9.90;99.90
60027;DHT22;45891;53.006;6.512;2023-04-24T01:23:45;9.90;99.90
60027;DHT22;45891;53.006;6.512;2023-04-24T01:26:13;10.00;99.90
60027;DHT22;45891;53.006;6.512;2023-04-24T01:28:39;9.90;99.90
60027;DHT22;45891;53.006;6.512;2023-04-24T01:31:05;10.00;99.90
60027;DHT22;45891;53.006;6.512;2023-04-24T01:33:32;10.00;99.90
60027;DHT22;45891;53.006;6.512;2023-04-24T01:35:58;10.00;99.90
60027;DHT22;45891;53.006;6.512;2023-04-24T01:38:25;10.00;99.90
60027;DHT22;45891;53.006;6.512;2023-04-24T01:40:51;10.00;99.90
60027;DHT22;45891;53.006;6.512;2023-04-24T01:43:18;10.00;99.90
60027;DHT22;45891;53.006;6.512;2023-04-24T01:45:44;10.00;99.90
60027;DHT22;45891;53.006;6.512;2023-04-24T01:48:12;10.00;99.90
60027;DHT22;45891;53.006;6.512;2023-04-24T01:50:38;10.00;99.90
60027;DHT22;45891;53.006;6.512;2023-04-24T01:53:04;10.00;99.90
60027;DHT22;45891;53.006;6.512;2023-04-24T01:55:30;10.00;99.90
60027;DHT22;45891;53.006;6.512;2023-04-24T01:57:57;10.00;99.90
60027;DHT22;45891;53.006;6.512;2023-04-24T02:00:25;10.00;99.90
60027;DHT22;45891;53.006;6.512;2023-04-24T02:02:51;10.00;99.90
60027;DHT22;45891;53.006;6.512;2023-04-24T02:05:17;10.00;99.90
60027;DHT22;45891;53.006;6.512;2023-04-24T02:07:43;10.00;99.90
60027;DHT22;45891;53.006;6.512;2023-04-24T02:10:10;10.00;99.90
60027;DHT22;45891;53.006;6.512;2023-04-24T02:12:36;10.00;99.90
60027;DHT22;45891;53.006;6.512;2023-04-24T02:15:03;10.00;99.90
60027;DHT22;45891;53.006;6.512;2023-04-24T02:17:29;10.10;99.90
60027;DHT22;45891;53.006;6.512;2023-04-24T02:19:56;10.10;99.90
60027;DHT22;45891;53.006;6.512;2023-04-24T02:22:22;10.10;99.90
60027;DHT22;45891;53.006;6.512;2023-04-24T02:24:48;10.10;99.90
60027;DHT22;45891;53.006;6.512;2023-04-24T02:27:14;10.10;99.90
60027;DHT22;45891;53.006;6.512;2023-04-24T02:29:41;10.10;99.90
60027;DHT22;45891;53.006;6.512;2023-04-24T02:32:07;10.10;99.90
60027;DHT22;45891;53.006;6.512;2023-04-24T02:34:37;10.10;99.90
60027;DHT22;45891;53.006;6.512;2023-04-24T02:37:03;10.00;99.90
60027;DHT22;45891;53.006;6.512;2023-04-24T02:39:29;10.00;99.90
60027;DHT22;45891;53.006;6.512;2023-04-24T02:41:55;9.90;99.90
60027;DHT22;45891;53.006;6.512;2023-04-24T02:44:21;9.90;99.90
60027;DHT22;45891;53.006;6.512;2023-04-24T02:46:48;9.90;99.90
60027;DHT22;45891;53.006;6.512;2023-04-24T02:49:14;9.90;99.90
60027;DHT22;45891;53.006;6.512;2023-04-24T02:51:41;9.80;99.90
60027;DHT22;45891;53.006;6.512;2023-04-24T02:54:08;9.80;99.90
60027;DHT22;45891;53.006;6.512;2023-04-24T02:56:35;9.80;99.90
60027;DHT22;45891;53.006;6.512;2023-04-24T02:59:01;9.80;99.90
60027;DHT22;45891;53.006;6.512;2023-04-24T03:01:28;9.80;99.90
60027;DHT22;45891;53.006;6.512;2023-04-24T03:03:54;9.80;99.90
60027;DHT22;45891;53.006;6.512;2023-04-24T03:06:20;9.70;99.90
60027;DHT22;45891;53.006;6.512;2023-04-24T03:08:46;9.80;99.90
60027;DHT22;45891;53.006;6.512;2023-04-24T03:11:12;9.80;99.90
60027;DHT22;45891;53.006;6.512;2023-04-24T03:13:38;9.70;99.90
60027;DHT22;45891;53.006;6.512;2023-04-24T03:16:04;9.80;99.90
60027;DHT22;45891;53.006;6.512;2023-04-24T03:18:31;9.70;99.90
60027;DHT22;45891;53.006;6.512;2023-04-24T03:20:57;9.70;99.90
60027;DHT22;45891;53.006;6.512;2023-04-24T03:23:23;9.70;99.90
60027;DHT22;45891;53.006;6.512;2023-04-24T03:25:49;9.80;99.90
60027;DHT22;45891;53.006;6.512;2023-04-24T03:28:15;9.70;99.90
60027;DHT22;45891;53.006;6.512;2023-04-24T03:30:41;9.70;99.90
60027;DHT22;45891;53.006;6.512;2023-04-24T03:33:08;9.80;99.90
60027;DHT22;45891;53.006;6.512;2023-04-24T03:35:34;9.80;99.90
60027;DHT22;45891;53.006;6.512;2023-04-24T03:38:00;9.80;99.90
60027;DHT22;45891;53.006;6.512;2023-04-24T03:40:26;9.70;99.90
60027;DHT22;45891;53.006;6.512;2023-04-24T03:42:52;9.70;99.90
60027;DHT22;45891;53.006;6.512;2023-04-24T03:45:19;9.70;99.90
60027;DHT22;45891;53.006;6.512;2023-04-24T03:47:45;9.70;99.90
60027;DHT22;45891;53.006;6.512;2023-04-24T03:50:11;9.70;99.90
60027;DHT22;45891;53.006;6.512;2023-04-24T03:52:37;9.70;99.90
60027;DHT22;45891;53.006;6.512;2023-04-24T03:55:03;9.70;99.90
60027;DHT22;45891;53.006;6.512;2023-04-24T03:57:29;9.70;99.90
60027;DHT22;45891;53.006;6.512;2023-04-24T03:59:56;9.70;99.90
60027;DHT22;45891;53.006;6.512;2023-04-24T04:02:22;9.70;99.90
60027;DHT22;45891;53.006;6.512;2023-04-24T04:04:48;9.70;99.90
60027;DHT22;45891;53.006;6.512;2023-04-24T04:07:14;9.60;99.90
60027;DHT22;45891;53.006;6.512;2023-04-24T04:09:40;9.60;99.90
60027;DHT22;45891;53.006;6.512;2023-04-24T04:12:06;9.60;99.90
60027;DHT22;45891;53.006;6.512;2023-04-24T04:14:32;9.60;99.90
60027;DHT22;45891;53.006;6.512;2023-04-24T04:16:58;9.70;99.90
60027;DHT22;45891;53.006;6.512;2023-04-24T04:19:24;9.60;99.90
60027;DHT22;45891;53.006;6.512;2023-04-24T04:21:50;9.60;99.90
60027;DHT22;45891;53.006;6.512;2023-04-24T04:24:19;9.70;99.90
60027;DHT22;45891;53.006;6.512;2023-04-24T04:26:46;9.70;99.90
60027;DHT22;45891;53.006;6.512;2023-04-24T04:29:13;9.70;99.90
60027;DHT22;45891;53.006;6.512;2023-04-24T04:31:39;9.60;99.90
60027;DHT22;45891;53.006;6.512;2023-04-24T04:34:06;9.60;99.90
60027;DHT22;45891;53.006;6.512;2023-04-24T04:36:33;9.70;99.90
60027;DHT22;45891;53.006;6.512;2023-04-24T04:39:02;9.70;99.90
60027;DHT22;45891;53.006;6.512;2023-04-24T04:41:29;9.70;99.90
60027;DHT22;45891;53.006;6.512;2023-04-24T04:43:56;9.70;99.90
60027;DHT22;45891;53.006;6.512;2023-04-24T04:46:24;9.70;99.90
60027;DHT22;45891;53.006;6.512;2023-04-24T04:48:53;9.60;99.90
60027;DHT22;45891;53.006;6.512;2023-04-24T04:51:19;9.70;99.90
60027;DHT22;45891;53.006;6.512;2023-04-24T04:53:45;9.60;99.90
60027;DHT22;45891;53.006;6.512;2023-04-24T04:56:12;9.60;99.90
60027;DHT22;45891;53.006;6.512;2023-04-24T04:58:38;9.60;99.90
60027;DHT22;45891;53.006;6.512;2023-04-24T05:01:04;9.60;99.90
60027;DHT22;45891;53.006;6.512;2023-04-24T05:03:30;9.50;99.90
60027;DHT22;45891;53.006;6.512;2023-04-24T05:05:57;9.40;99.90
60027;DHT22;45891;53.006;6.512;2023-04-24T05:08:24;9.30;99.90
60027;DHT22;45891;53.006;6.512;2023-04-24T05:10:50;9.30;99.90
60027;DHT22;45891;53.006;6.512;2023-04-24T05:13:16;9.30;99.90
60027;DHT22;45891;53.006;6.512;2023-04-24T05:15:42;9.30;99.90
60027;DHT22;45891;53.006;6.512;2023-04-24T05:18:08;9.30;99.90
60027;DHT22;45891;53.006;6.512;2023-04-24T05:20:34;9.30;99.90
60027;DHT22;45891;53.006;6.512;2023-04-24T05:23:00;9.30;99.90
60027;DHT22;45891;53.006;6.512;2023-04-24T05:25:26;9.30;99.90
60027;DHT22;45891;53.006;6.512;2023-04-24T05:27:52;9.30;99.90
60027;DHT22;45891;53.006;6.512;2023-04-24T05:30:19;9.30;99.90
60027;DHT22;45891;53.006;6.512;2023-04-24T05:32:46;9.30;99.90
60027;DHT22;45891;53.006;6.512;2023-04-24T05:35:12;9.30;99.90
60027;DHT22;45891;53.006;6.512;2023-04-24T05:37:38;9.40;99.90
60027;DHT22;45891;53.006;6.512;2023-04-24T05:40:04;9.50;99.90
60027;DHT22;45891;53.006;6.512;2023-04-24T05:42:31;9.50;99.90
60027;DHT22;45891;53.006;6.512;2023-04-24T05:44:58;9.60;99.90
60027;DHT22;45891;53.006;6.512;2023-04-24T05:47:24;9.60;99.90
60027;DHT22;45891;53.006;6.512;2023-04-24T05:49:50;9.60;99.90
60027;DHT22;45891;53.006;6.512;2023-04-24T05:52:16;9.70;99.90
60027;DHT22;45891;53.006;6.512;2023-04-24T05:54:42;9.70;99.90
60027;DHT22;45891;53.006;6.512;2023-04-24T05:57:08;9.70;99.90
60027;DHT22;45891;53.006;6.512;2023-04-24T05:59:37;9.80;99.90
60027;DHT22;45891;53.006;6.512;2023-04-24T06:02:07;9.80;99.90
60027;DHT22;45891;53.006;6.512;2023-04-24T06:04:33;9.80;99.90
60027;DHT22;45891;53.006;6.512;2023-04-24T06:06:59;9.90;99.90
60027;DHT22;45891;53.006;6.512;2023-04-24T06:09:26;9.90;99.90
60027;DHT22;45891;53.006;6.512;2023-04-24T06:11:52;10.00;99.90
60027;DHT22;45891;53.006;6.512;2023-04-24T06:14:19;9.90;99.90
60027;DHT22;45891;53.006;6.512;2023-04-24T06:16:45;9.90;99.90
60027;DHT22;45891;53.006;6.512;2023-04-24T06:19:11;9.90;99.90
60027;DHT22;45891;53.006;6.512;2023-04-24T06:21:37;9.90;99.90
60027;DHT22;45891;53.006;6.512;2023-04-24T06:24:04;9.90;99.90
60027;DHT22;45891;53.006;6.512;2023-04-24T06:26:32;9.80;99.90
60027;DHT22;45891;53.006;6.512;2023-04-24T06:28:58;9.80;99.90
60027;DHT22;45891;53.006;6.512;2023-04-24T06:31:25;9.90;99.90
60027;DHT22;45891;53.006;6.512;2023-04-24T06:33:51;9.90;99.90
60027;DHT22;45891;53.006;6.512;2023-04-24T06:36:17;9.80;99.90
60027;DHT22;45891;53.006;6.512;2023-04-24T06:38:43;9.80;99.90
60027;DHT22;45891;53.006;6.512;2023-04-24T06:41:10;9.80;99.90
60027;DHT22;45891;53.006;6.512;2023-04-24T06:43:36;9.70;99.90
60027;DHT22;45891;53.006;6.512;2023-04-24T06:46:02;9.80;99.90
60027;DHT22;45891;53.006;6.512;2023-04-24T06:48:29;9.80;99.90
60027;DHT22;45891;53.006;6.512;2023-04-24T06:50:55;9.70;99.90
60027;DHT22;45891;53.006;6.512;2023-04-24T06:53:21;9.70;99.90
60027;DHT22;45891;53.006;6.512;2023-04-24T06:55:47;9.60;99.90
60027;DHT22;45891;53.006;6.512;2023-04-24T06:58:14;9.60;99.90
60027;DHT22;45891;53.006;6.512;2023-04-24T07:00:40;9.70;99.90
60027;DHT22;45891;53.006;6.512;2023-04-24T07:03:06;9.70;99.90
60027;DHT22;45891;53.006;6.512;2023-04-24T07:05:33;9.70;99.90
60027;DHT22;45891;53.006;6.512;2023-04-24T07:08:01;9.70;99.90
60027;DHT22;45891;53.006;6.512;2023-04-24T07:10:27;9.70;99.90
60027;DHT22;45891;53.006;6.512;2023-04-24T07:12:55;9.70;99.90
60027;DHT22;45891;53.006;6.512;2023-04-24T07:15:22;9.80;99.90
60027;DHT22;45891;53.006;6.512;2023-04-24T07:17:49;9.80;99.90
60027;DHT22;45891;53.006;6.512;2023-04-24T07:20:15;9.80;99.90
60027;DHT22;45891;53.006;6.512;2023-04-24T07:22:42;9.80;99.90
60027;DHT22;45891;53.006;6.512;2023-04-24T07:25:08;9.70;99.90
60027;DHT22;45891;53.006;6.512;2023-04-24T07:27:35;9.70;99.90
60027;DHT22;45891;53.006;6.512;2023-04-24T07:30:03;9.70;99.90
60027;DHT22;45891;53.006;6.512;2023-04-24T07:32:30;9.60;99.90
60027;DHT22;45891;53.006;6.512;2023-04-24T07:34:56;9.60;99.90
60027;DHT22;45891;53.006;6.512;2023-04-24T07:37:22;9.70;99.90
60027;DHT22;45891;53.006;6.512;2023-04-24T07:39:49;9.60;99.90
60027;DHT22;45891;53.006;6.512;2023-04-24T07:42:15;9.70;99.90
60027;DHT22;45891;53.006;6.512;2023-04-24T07:44:41;9.60;99.90
60027;DHT22;45891;53.006;6.512;2023-04-24T07:47:08;9.60;99.90
60027;DHT22;45891;53.006;6.512;2023-04-24T07:49:34;9.50;99.90
60027;DHT22;45891;53.006;6.512;2023-04-24T07:52:00;9.50;99.90
60027;DHT22;45891;53.006;6.512;2023-04-24T07:54:28;9.50;99.90
60027;DHT22;45891;53.006;6.512;2023-04-24T07:56:55;9.50;99.90
60027;DHT22;45891;53.006;6.512;2023-04-24T07:59:21;9.50;99.90
60027;DHT22;45891;53.006;6.512;2023-04-24T08:01:47;9.50;99.90
60027;DHT22;45891;53.006;6.512;2023-04-24T08:04:14;9.40;99.90
60027;DHT22;45891;53.006;6.512;2023-04-24T08:06:40;9.50;99.90
60027;DHT22;45891;53.006;6.512;2023-04-24T08:09:07;9.50;99.90
60027;DHT22;45891;53.006;6.512;2023-04-24T08:11:33;9.50;99.90
60027;DHT22;45891;53.006;6.512;2023-04-24T08:13:59;9.50;99.90
60027;DHT22;45891;53.006;6.512;2023-04-24T08:16:25;9.50;99.90
60027;DHT22;45891;53.006;6.512;2023-04-24T08:18:52;9.40;99.90
60027;DHT22;45891;53.006;6.512;2023-04-24T08:21:19;9.30;99.90
60027;DHT22;45891;53.006;6.512;2023-04-24T08:23:46;9.20;99.90
60027;DHT22;45891;53.006;6.512;2023-04-24T08:26:12;9.20;99.90
60027;DHT22;45891;53.006;6.512;2023-04-24T08:28:39;9.20;99.90
60027;DHT22;45891;53.006;6.512;2023-04-24T08:31:05;9.10;99.90
60027;DHT22;45891;53.006;6.512;2023-04-24T08:33:31;9.10;99.90
60027;DHT22;45891;53.006;6.512;2023-04-24T08:36:04;9.00;99.90
60027;DHT22;45891;53.006;6.512;2023-04-24T08:38:31;9.00;99.90
60027;DHT22;45891;53.006;6.512;2023-04-24T08:40:58;9.00;99.90
60027;DHT22;45891;53.006;6.512;2023-04-24T08:43:26;9.10;99.90
60027;DHT22;45891;53.006;6.512;2023-04-24T08:45:52;9.00;99.90
60027;DHT22;45891;53.006;6.512;2023-04-24T08:48:18;9.10;99.90
60027;DHT22;45891;53.006;6.512;2023-04-24T08:50:45;9.10;99.90
60027;DHT22;45891;53.006;6.512;2023-04-24T08:53:11;9.00;99.90
60027;DHT22;45891;53.006;6.512;2023-04-24T08:55:38;9.00;99.90
60027;DHT22;45891;53.006;6.512;2023-04-24T08:58:04;8.90;99.90
60027;DHT22;45891;53.006;6.512;2023-04-24T09:00:31;8.90;99.90
60027;DHT22;45891;53.006;6.512;2023-04-24T09:03:00;8.80;99.90
60027;DHT22;45891;53.006;6.512;2023-04-24T09:05:27;8.80;99.90
60027;DHT22;45891;53.006;6.512;2023-04-24T09:07:54;8.70;99.90
60027;DHT22;45891;53.006;6.512;2023-04-24T09:10:24;8.70;99.90
60027;DHT22;45891;53.006;6.512;2023-04-24T09:12:51;8.80;99.90
60027;DHT22;45891;53.006;6.512;2023-04-24T09:15:21;8.80;99.90
60027;DHT22;45891;53.006;6.512;2023-04-24T09:17:47;8.80;99.90
60027;DHT22;45891;53.006;6.512;2023-04-24T09:20:13;8.90;99.90
60027;DHT22;45891;53.006;6.512;2023-04-24T09:22:40;8.80;99.90
60027;DHT22;45891;53.006;6.512;2023-04-24T09:25:08;8.70;99.90
60027;DHT22;45891;53.006;6.512;2023-04-24T09:27:35;8.80;99.90
60027;DHT22;45891;53.006;6.512;2023-04-24T09:30:01;8.80;99.90
60027;DHT22;45891;53.006;6.512;2023-04-24T09:32:28;8.90;99.90
60027;DHT22;45891;53.006;6.512;2023-04-24T09:37:38;8.90;99.90
60027;DHT22;45891;53.006;6.512;2023-04-24T09:40:08;8.90;99.90
60027;DHT22;45891;53.006;6.512;2023-04-24T09:42:35;8.90;99.90
60027;DHT22;45891;53.006;6.512;2023-04-24T09:45:02;8.80;99.90
60027;DHT22;45891;53.006;6.512;2023-04-24T09:47:36;8.80;99.90
60027;DHT22;45891;53.006;6.512;2023-04-24T09:50:12;8.80;99.90
60027;DHT22;45891;53.006;6.512;2023-04-24T09:52:44;8.90;99.90
60027;DHT22;45891;53.006;6.512;2023-04-24T09:55:19;8.80;99.90
60027;DHT22;45891;53.006;6.512;2023-04-24T09:57:56;8.90;99.90
60027;DHT22;45891;53.006;6.512;2023-04-24T10:00:24;8.90;99.90
60027;DHT22;45891;53.006;6.512;2023-04-24T10:02:59;8.90;99.90
60027;DHT22;45891;53.006;6.512;2023-04-24T10:05:36;9.00;99.90
60027;DHT22;45891;53.006;6.512;2023-04-24T10:08:10;9.10;99.90
60027;DHT22;45891;53.006;6.512;2023-04-24T10:10:41;9.10;99.90
60027;DHT22;45891;53.006;6.512;2023-04-24T10:13:09;9.20;99.90
60027;DHT22;45891;53.006;6.512;2023-04-24T10:15:37;9.30;99.90
60027;DHT22;45891;53.006;6.512;2023-04-24T10:18:04;9.40;99.90
60027;DHT22;45891;53.006;6.512;2023-04-24T10:20:33;9.40;99.90
60027;DHT22;45891;53.006;6.512;2023-04-24T10:23:00;9.40;99.90
60027;DHT22;45891;53.006;6.512;2023-04-24T10:25:28;9.50;99.90
60027;DHT22;45891;53.006;6.512;2023-04-24T10:27:55;9.50;99.90
60027;DHT22;45891;53.006;6.512;2023-04-24T10:30:28;9.50;99.90
60027;DHT22;45891;53.006;6.512;2023-04-24T10:32:54;9.40;99.90
60027;DHT22;45891;53.006;6.512;2023-04-24T10:35:20;9.50;99.90
60027;DHT22;45891;53.006;6.512;2023-04-24T10:38:06;9.50;99.90
60027;DHT22;45891;53.006;6.512;2023-04-24T10:40:35;9.40;99.90
60027;DHT22;45891;53.006;6.512;2023-04-24T10:43:08;9.40;99.90
60027;DHT22;45891;53.006;6.512;2023-04-24T10:45:38;9.40;99.90
60027;DHT22;45891;53.006;6.512;2023-04-24T10:48:06;9.40;99.90
60027;DHT22;45891;53.006;6.512;2023-04-24T10:50:53;9.50;99.90
60027;DHT22;45891;53.006;6.512;2023-04-24T10:53:21;9.50;99.90
60027;DHT22;45891;53.006;6.512;2023-04-24T10:56:03;9.60;99.90
60027;DHT22;45891;53.006;6.512;2023-04-24T10:58:38;9.60;99.90
60027;DHT22;45891;53.006;6.512;2023-04-24T11:01:06;9.60;99.90
60027;DHT22;45891;53.006;6.512;2023-04-24T11:03:34;9.60;99.90
60027;DHT22;45891;53.006;6.512;2023-04-24T11:06:06;9.70;99.90
60027;DHT22;45891;53.006;6.512;2023-04-24T11:08:39;9.80;99.90
60027;DHT22;45891;53.006;6.512;2023-04-24T11:11:12;9.70;99.90
60027;DHT22;45891;53.006;6.512;2023-04-24T11:19:11;9.60;99.90
60027;DHT22;45891;53.006;6.512;2023-04-24T11:26:51;9.60;99.90
60027;DHT22;45891;53.006;6.512;2023-04-24T11:29:20;9.70;99.90
60027;DHT22;45891;53.006;6.512;2023-04-24T11:31:46;9.80;99.90
60027;DHT22;45891;53.006;6.512;2023-04-24T11:34:16;9.90;99.90
60027;DHT22;45891;53.006;6.512;2023-04-24T11:36:46;10.00;99.90
60027;DHT22;45891;53.006;6.512;2023-04-24T11:39:13;10.10;99.90
60027;DHT22;45891;53.006;6.512;2023-04-24T11:41:39;10.10;99.90
60027;DHT22;45891;53.006;6.512;2023-04-24T11:44:07;10.20;99.90
60027;DHT22;45891;53.006;6.512;2023-04-24T11:46:34;10.20;99.90
60027;DHT22;45891;53.006;6.512;2023-04-24T11:49:00;10.10;99.90
60027;DHT22;45891;53.006;6.512;2023-04-24T11:51:27;10.10;99.90
60027;DHT22;45891;53.006;6.512;2023-04-24T11:53:54;10.00;99.90
60027;DHT22;45891;53.006;6.512;2023-04-24T11:56:24;9.80;99.90
60027;DHT22;45891;53.006;6.512;2023-04-24T11:58:53;9.60;99.90
60027;DHT22;45891;53.006;6.512;2023-04-24T12:01:20;9.50;99.90
60027;DHT22;45891;53.006;6.512;2023-04-24T12:03:50;9.40;99.90
60027;DHT22;45891;53.006;6.512;2023-04-24T12:06:19;9.30;99.90
60027;DHT22;45891;53.006;6.512;2023-04-24T12:08:46;9.20;99.90
60027;DHT22;45891;53.006;6.512;2023-04-24T12:11:16;9.30;99.90
60027;DHT22;45891;53.006;6.512;2023-04-24T12:13:42;9.30;99.90
60027;DHT22;45891;53.006;6.512;2023-04-24T12:16:09;9.40;99.90
60027;DHT22;45891;53.006;6.512;2023-04-24T12:18:35;9.60;99.90
60027;DHT22;45891;53.006;6.512;2023-04-24T12:21:21;9.70;99.90
60027;DHT22;45891;53.006;6.512;2023-04-24T12:23:48;9.90;99.90
60027;DHT22;45891;53.006;6.512;2023-04-24T12:26:20;10.00;99.90
60027;DHT22;45891;53.006;6.512;2023-04-24T12:28:49;10.10;99.90
60027;DHT22;45891;53.006;6.512;2023-04-24T12:31:16;10.10;99.90
60027;DHT22;45891;53.006;6.512;2023-04-24T12:33:42;10.20;99.90
60027;DHT22;45891;53.006;6.512;2023-04-24T12:36:12;10.20;99.90
60027;DHT22;45891;53.006;6.512;2023-04-24T12:38:39;10.20;99.90
60027;DHT22;45891;53.006;6.512;2023-04-24T12:41:13;10.10;99.90
60027;DHT22;45891;53.006;6.512;2023-04-24T12:43:53;10.10;99.90
60027;DHT22;45891;53.006;6.512;2023-04-24T12:46:19;10.10;99.90
60027;DHT22;45891;53.006;6.512;2023-04-24T12:48:45;10.10;99.90
60027;DHT22;45891;53.006;6.512;2023-04-24T12:51:12;10.00;99.90
60027;DHT22;45891;53.006;6.512;2023-04-24T12:53:38;9.90;99.90
60027;DHT22;45891;53.006;6.512;2023-04-24T12:56:04;9.90;99.90
60027;DHT22;45891;53.006;6.512;2023-04-24T12:58:30;9.80;99.90
60027;DHT22;45891;53.006;6.512;2023-04-24T13:00:56;9.70;99.90
60027;DHT22;45891;53.006;6.512;2023-04-24T13:03:22;9.70;99.90
60027;DHT22;45891;53.006;6.512;2023-04-24T13:05:48;9.80;99.90
60027;DHT22;45891;53.006;6.512;2023-04-24T13:08:14;9.90;99.90
60027;DHT22;45891;53.006;6.512;2023-04-24T13:10:41;10.10;99.90
60027;DHT22;45891;53.006;6.512;2023-04-24T13:13:08;10.10;99.90
60027;DHT22;45891;53.006;6.512;2023-04-24T13:15:34;10.00;99.90
60027;DHT22;45891;53.006;6.512;2023-04-24T13:18:00;10.00;99.90
60027;DHT22;45891;53.006;6.512;2023-04-24T13:20:26;9.90;99.90
60027;DHT22;45891;53.006;6.512;2023-04-24T13:22:53;9.90;99.90
60027;DHT22;45891;53.006;6.512;2023-04-24T13:25:19;9.90;99.90
60027;DHT22;45891;53.006;6.512;2023-04-24T13:27:46;10.00;99.90
60027;DHT22;45891;53.006;6.512;2023-04-24T13:30:12;10.00;99.90
60027;DHT22;45891;53.006;6.512;2023-04-24T13:32:38;9.90;99.90
60027;DHT22;45891;53.006;6.512;2023-04-24T13:35:05;9.90;99.90
60027;DHT22;45891;53.006;6.512;2023-04-24T13:37:31;9.90;99.90
60027;DHT22;45891;53.006;6.512;2023-04-24T13:39:57;10.00;99.90
60027;DHT22;45891;53.006;6.512;2023-04-24T13:42:23;10.10;99.90
60027;DHT22;45891;53.006;6.512;2023-04-24T13:44:49;10.10;99.90
60027;DHT22;45891;53.006;6.512;2023-04-24T13:47:16;10.30;99.90
60027;DHT22;45891;53.006;6.512;2023-04-24T13:49:42;10.40;99.90
60027;DHT22;45891;53.006;6.512;2023-04-24T13:52:08;10.40;99.90
60027;DHT22;45891;53.006;6.512;2023-04-24T13:54:36;10.30;99.90
60027;DHT22;45891;53.006;6.512;2023-04-24T13:57:03;10.10;99.90
60027;DHT22;45891;53.006;6.512;2023-04-24T13:59:29;9.90;99.90
60027;DHT22;45891;53.006;6.512;2023-04-24T14:01:55;9.90;99.90
60027;DHT22;45891;53.006;6.512;2023-04-24T14:04:21;9.90;99.90
60027;DHT22;45891;53.006;6.512;2023-04-24T14:06:48;9.90;99.90
60027;DHT22;45891;53.006;6.512;2023-04-24T14:09:14;9.90;99.90
60027;DHT22;45891;53.006;6.512;2023-04-24T14:11:40;9.80;99.90
60027;DHT22;45891;53.006;6.512;2023-04-24T14:14:06;9.80;99.90
60027;DHT22;45891;53.006;6.512;2023-04-24T14:16:34;9.70;99.90
60027;DHT22;45891;53.006;6.512;2023-04-24T14:19:00;9.70;99.90
60027;DHT22;45891;53.006;6.512;2023-04-24T14:21:26;9.70;99.90
60027;DHT22;45891;53.006;6.512;2023-04-24T14:23:52;9.70;99.90
60027;DHT22;45891;53.006;6.512;2023-04-24T14:26:19;9.70;99.90
60027;DHT22;45891;53.006;6.512;2023-04-24T14:28:45;9.80;99.90
60027;DHT22;45891;53.006;6.512;2023-04-24T14:31:11;9.70;99.90
60027;DHT22;45891;53.006;6.512;2023-04-24T14:33:37;9.60;99.90
60027;DHT22;45891;53.006;6.512;2023-04-24T14:36:04;9.60;99.90
60027;DHT22;45891;53.006;6.512;2023-04-24T14:38:31;9.50;99.90
60027;DHT22;45891;53.006;6.512;2023-04-24T14:40:57;9.40;99.90
60027;DHT22;45891;53.006;6.512;2023-04-24T14:43:23;9.30;99.90
60027;DHT22;45891;53.006;6.512;2023-04-24T14:45:49;9.20;99.90
60027;DHT22;45891;53.006;6.512;2023-04-24T14:48:16;9.10;99.90
60027;DHT22;45891;53.006;6.512;2023-04-24T14:50:43;9.10;99.90
60027;DHT22;45891;53.006;6.512;2023-04-24T14:53:09;9.20;99.90
60027;DHT22;45891;53.006;6.512;2023-04-24T14:55:36;9.30;99.90
60027;DHT22;45891;53.006;6.512;2023-04-24T14:58:02;9.20;99.90
60027;DHT22;45891;53.006;6.512;2023-04-24T15:00:29;9.20;99.90
60027;DHT22;45891;53.006;6.512;2023-04-24T15:02:55;9.00;99.90
60027;DHT22;45891;53.006;6.512;2023-04-24T15:05:21;8.90;99.90
60027;DHT22;45891;53.006;6.512;2023-04-24T15:07:48;8.80;99.90
60027;DHT22;45891;53.006;6.512;2023-04-24T15:10:14;8.80;99.90
60027;DHT22;45891;53.006;6.512;2023-04-24T15:12:40;8.80;99.90
60027;DHT22;45891;53.006;6.512;2023-04-24T15:15:07;8.80;99.90
60027;DHT22;45891;53.006;6.512;2023-04-24T15:17:33;8.80;99.90
60027;DHT22;45891;53.006;6.512;2023-04-24T15:19:59;8.90;99.90
60027;DHT22;45891;53.006;6.512;2023-04-24T15:22:26;8.90;99.90
60027;DHT22;45891;53.006;6.512;2023-04-24T15:24:52;8.90;99.90
60027;DHT22;45891;53.006;6.512;2023-04-24T15:27:18;8.90;99.90
60027;DHT22;45891;53.006;6.512;2023-04-24T15:29:44;8.90;99.90
60027;DHT22;45891;53.006;6.512;2023-04-24T15:32:11;8.90;99.90
60027;DHT22;45891;53.006;6.512;2023-04-24T15:34:37;8.90;99.90
60027;DHT22;45891;53.006;6.512;2023-04-24T15:37:04;8.90;99.90
60027;DHT22;45891;53.006;6.512;2023-04-24T15:39:31;8.90;99.90
60027;DHT22;45891;53.006;6.512;2023-04-24T15:41:57;8.90;99.90
60027;DHT22;45891;53.006;6.512;2023-04-24T15:44:23;8.90;99.90
60027;DHT22;45891;53.006;6.512;2023-04-24T15:46:49;8.80;99.90
60027;DHT22;45891;53.006;6.512;2023-04-24T15:49:17;8.80;99.90
60027;DHT22;45891;53.006;6.512;2023-04-24T15:51:43;8.70;99.90
60027;DHT22;45891;53.006;6.512;2023-04-24T15:54:09;8.70;99.90